Time;durP1;ratioP1;P1;durP2;ratioP2;P2;SDS_P1;SDS_P2;PMS_P1;PMS_P2;Temp;Humidity;BMP_temperature;BMP_pressure;BME280_temperature;BME280_humidity;BME280_pressure;Samples;Min_cycle;Max_cycle;Signal;HPM_P1;HPM_P2
2023/03/30 00:00:58;;;;;;;5.15;2.42;;;;;18.00;100368.00;;;;5007243;28;20788;-85
2023/03/30 00:03:26;;;;;;;3.78;2.50;;;;;18.00;100374.00;;;;5010175;28;20210;-85
2023/03/30 00:05:55;;;;;;;5.65;2.35;;;;;18.00;100358.00;;;;5008988;28;20204;-85
2023/03/30 00:08:27;;;;;;;4.00;2.42;;;;;18.00;100348.00;;;;5007720;28;20310;-84
2023/03/30 00:11:00;;;;;;;3.38;2.38;;;;;17.90;100342.00;;;;5009494;28;20625;-83
2023/03/30 00:13:30;;;;;;;3.28;2.17;;;;;18.00;100337.00;;;;5010024;28;20203;-84
2023/03/30 00:15:57;;;;;;;5.85;2.55;;;;;18.00;100323.00;;;;5008568;28;20574;-84
2023/03/30 00:18:25;;;;;;;2.30;1.85;;;;;18.00;100326.00;;;;5006755;28;20201;-84
2023/03/30 00:20:53;;;;;;;6.03;2.35;;;;;18.00;100325.00;;;;5007266;28;20197;-84
2023/03/30 00:23:21;;;;;;;4.05;2.33;;;;;18.00;100316.00;;;;4989680;28;20241;-84
2023/03/30 00:25:49;;;;;;;2.95;2.15;;;;;18.00;100312.00;;;;5006139;28;20201;-84
2023/03/30 00:28:16;;;;;;;3.95;2.28;;;;;18.00;100330.00;;;;5007645;28;20204;-85
2023/03/30 00:30:45;;;;;;;6.75;2.63;;;;;18.00;100331.00;;;;5007473;28;20204;-84
2023/03/30 00:33:12;;;;;;;4.28;2.47;;;;;18.00;100333.00;;;;5008421;28;20289;-84
2023/03/30 00:35:40;;;;;;;3.42;2.20;;;;;18.10;100339.00;;;;5005078;28;20849;-84
2023/03/30 00:38:07;;;;;;;4.10;2.33;;;;;18.10;100344.00;;;;5003375;28;20694;-84
2023/03/30 00:40:36;;;;;;;4.15;1.83;;;;;18.10;100341.00;;;;4994537;28;20584;-84
2023/03/30 00:43:05;;;;;;;4.72;2.22;;;;;18.10;100345.00;;;;5008726;28;20219;-84
2023/03/30 00:45:33;;;;;;;3.25;1.55;;;;;18.20;100321.00;;;;5009732;28;20201;-85
2023/03/30 00:48:05;;;;;;;2.80;1.75;;;;;18.20;100321.00;;;;5009099;28;20204;-85
2023/03/30 00:50:37;;;;;;;2.20;1.48;;;;;18.20;100335.00;;;;5008229;28;20207;-85
2023/03/30 00:53:11;;;;;;;3.83;1.75;;;;;18.20;100331.00;;;;5009107;28;20205;-84
2023/03/30 00:55:41;;;;;;;3.28;1.70;;;;;18.20;100320.00;;;;5008368;28;20197;-85
2023/03/30 00:58:09;;;;;;;2.65;1.70;;;;;18.30;100314.00;;;;5007631;28;20197;-86
2023/03/30 01:00:38;;;;;;;1.98;1.20;;;;;18.30;100303.00;;;;5006994;28;20229;-85
2023/03/30 01:03:16;;;;;;;3.10;1.58;;;;;18.20;100292.00;;;;4989721;28;20304;-85
2023/03/30 01:05:45;;;;;;;2.92;1.50;;;;;18.30;100277.00;;;;5005527;28;20201;-86
2023/03/30 01:08:15;;;;;;;3.28;1.42;;;;;18.30;100282.00;;;;5008945;28;20216;-84
2023/03/30 01:10:43;;;;;;;2.55;1.77;;;;;18.30;100288.00;;;;5008697;28;20356;-84
2023/03/30 01:13:12;;;;;;;3.10;1.55;;;;;18.30;100294.00;;;;5006648;28;20265;-85
2023/03/30 01:15:50;;;;;;;2.10;1.08;;;;;18.30;100282.00;;;;5008384;28;20201;-85
2023/03/30 01:18:32;;;;;;;3.05;1.40;;;;;18.20;100278.00;;;;5007204;28;20247;-85
2023/03/30 01:21:39;;;;;;;4.32;1.90;;;;;18.20;100280.00;;;;5009144;28;20256;-85
2023/03/30 01:24:30;;;;;;;2.30;1.48;;;;;18.20;100285.00;;;;4990755;28;20985;-85
2023/03/30 01:26:59;;;;;;;2.65;1.30;;;;;18.30;100288.00;;;;5006385;28;20193;-85
2023/03/30 01:29:53;;;;;;;2.25;1.45;;;;;18.20;100279.00;;;;4999832;28;20229;-85
2023/03/30 01:32:48;;;;;;;1.63;0.95;;;;;18.20;100278.00;;;;5007733;28;20208;-85
2023/03/30 01:36:00;;;;;;;1.73;1.20;;;;;18.20;100282.00;;;;5008105;28;20247;-85
2023/03/30 01:39:05;;;;;;;2.95;1.50;;;;;18.10;100288.00;;;;4959719;28;20204;-85
2023/03/30 01:41:37;;;;;;;2.03;1.35;;;;;18.20;100290.00;;;;5008199;28;20693;-85
2023/03/30 01:44:11;;;;;;;2.95;1.58;;;;;18.20;100288.00;;;;5008243;28;20212;-85
2023/03/30 01:46:44;;;;;;;2.88;1.70;;;;;18.20;100284.00;;;;5007657;28;20862;-85
2023/03/30 01:49:16;;;;;;;4.10;1.60;;;;;18.20;100273.00;;;;5007235;28;20200;-85
2023/03/30 01:51:51;;;;;;;2.28;1.60;;;;;18.20;100273.00;;;;5005946;28;20205;-85
2023/03/30 01:54:22;;;;;;;2.42;1.35;;;;;18.20;100252.00;;;;5008132;28;20577;-85
2023/03/30 01:56:54;;;;;;;2.20;1.45;;;;;18.20;100242.00;;;;5007893;28;20243;-85
2023/03/30 01:59:26;;;;;;;3.40;1.60;;;;;18.30;100241.00;;;;5006015;28;20842;-85
2023/03/30 02:01:59;;;;;;;2.70;1.40;;;;;18.30;100246.00;;;;5006736;28;20224;-85
2023/03/30 02:04:29;;;;;;;1.80;1.40;;;;;18.30;100240.00;;;;4999352;28;20279;-85
2023/03/30 02:06:59;;;;;;;2.35;1.45;;;;;18.30;100246.00;;;;5008198;28;20197;-85
2023/03/30 02:09:27;;;;;;;2.15;1.20;;;;;18.30;100238.00;;;;5006656;28;20655;-85
2023/03/30 02:11:56;;;;;;;2.20;1.50;;;;;18.30;100247.00;;;;5008457;28;20193;-85
2023/03/30 02:14:28;;;;;;;1.60;1.27;;;;;18.30;100235.00;;;;5008663;28;20197;-85
2023/03/30 02:17:00;;;;;;;1.95;1.20;;;;;18.30;100227.00;;;;5007075;28;20232;-85
2023/03/30 02:19:29;;;;;;;2.03;1.42;;;;;18.30;100235.00;;;;5007036;28;20196;-84
2023/03/30 02:21:56;;;;;;;1.92;1.40;;;;;18.20;100246.00;;;;5005231;28;20205;-85
2023/03/30 02:24:29;;;;;;;3.72;1.42;;;;;18.20;100262.00;;;;5006727;28;20205;-85
2023/03/30 02:27:00;;;;;;;4.07;1.40;;;;;18.10;100267.00;;;;5006546;28;20201;-85
2023/03/30 02:29:28;;;;;;;2.80;1.30;;;;;18.10;100260.00;;;;5006689;28;20205;-85
2023/03/30 02:31:59;;;;;;;3.53;1.40;;;;;18.10;100262.00;;;;5008217;28;20201;-85
2023/03/30 02:34:44;;;;;;;2.28;1.17;;;;;18.00;100275.00;;;;5007559;28;20219;-85
2023/03/30 02:37:28;;;;;;;4.03;1.70;;;;;18.10;100273.00;;;;5003036;28;20320;-85
2023/03/30 02:40:11;;;;;;;2.13;1.20;;;;;18.10;100279.00;;;;5002564;28;20208;-85
2023/03/30 02:43:12;;;;;;;1.65;1.10;;;;;18.00;100282.00;;;;5009766;28;20225;-85
2023/03/30 02:45:50;;;;;;;5.18;0.90;;;;;18.10;100275.00;;;;5011983;28;20201;-85
2023/03/30 02:48:27;;;;;;;3.50;0.98;;;;;18.10;100273.00;;;;5011456;28;20575;-84
2023/03/30 02:51:03;;;;;;;2.25;1.20;;;;;18.10;100270.00;;;;5010022;28;20205;-84
2023/03/30 02:53:37;;;;;;;1.45;0.70;;;;;18.20;100263.00;;;;5010844;28;20203;-85
2023/03/30 02:56:14;;;;;;;5.13;1.42;;;;;18.20;100268.00;;;;5005237;28;20208;-85
2023/03/30 02:58:49;;;;;;;2.35;1.23;;;;;18.20;100264.00;;;;5010521;28;20199;-85
2023/03/30 03:01:22;;;;;;;1.17;0.95;;;;;18.30;100263.00;;;;5010613;28;20589;-84
2023/03/30 03:03:51;;;;;;;1.70;1.08;;;;;18.40;100262.00;;;;5010459;28;20201;-85
2023/03/30 03:06:20;;;;;;;1.35;0.95;;;;;18.40;100255.00;;;;5010810;28;20204;-85
2023/03/30 03:08:48;;;;;;;3.33;1.35;;;;;18.40;100254.00;;;;5011145;28;20212;-84
2023/03/30 03:11:15;;;;;;;4.35;1.10;;;;;18.50;100258.00;;;;5010548;28;20302;-84
2023/03/30 03:13:44;;;;;;;3.55;1.20;;;;;18.50;100250.00;;;;5010849;28;20201;-86
2023/03/30 03:16:12;;;;;;;3.17;1.00;;;;;18.50;100243.00;;;;5009474;28;20204;-85
2023/03/30 03:18:40;;;;;;;2.38;0.98;;;;;18.50;100229.00;;;;5009378;28;20283;-85
2023/03/30 03:21:08;;;;;;;1.10;0.60;;;;;18.50;100229.00;;;;4994387;28;20192;-84
2023/03/30 03:23:36;;;;;;;3.03;0.70;;;;;18.60;100229.00;;;;5010515;28;20205;-84
2023/03/30 03:26:04;;;;;;;3.42;1.13;;;;;18.60;100233.00;;;;5008225;28;20205;-86
2023/03/30 03:28:33;;;;;;;1.27;0.70;;;;;18.60;100233.00;;;;5007669;28;20244;-85
2023/03/30 03:31:02;;;;;;;4.28;1.10;;;;;18.60;100242.00;;;;4997971;28;20197;-85
2023/03/30 03:33:31;;;;;;;1.52;0.60;;;;;18.60;100239.00;;;;5010846;28;20197;-84
2023/03/30 03:35:59;;;;;;;1.90;0.80;;;;;18.60;100239.00;;;;5010598;28;20213;-85
2023/03/30 03:38:27;;;;;;;2.15;0.60;;;;;18.60;100232.00;;;;5008626;28;20718;-85
2023/03/30 03:40:56;;;;;;;1.80;0.82;;;;;18.60;100222.00;;;;5010579;28;20197;-87
2023/03/30 03:43:23;;;;;;;2.30;0.90;;;;;18.60;100221.00;;;;5010280;28;20205;-84
2023/03/30 03:45:51;;;;;;;4.13;0.63;;;;;18.60;100224.00;;;;4999637;28;20193;-85
2023/03/30 03:48:22;;;;;;;3.70;1.05;;;;;18.50;100218.00;;;;5009205;28;20212;-84
2023/03/30 03:50:51;;;;;;;2.22;0.80;;;;;18.60;100214.00;;;;5010413;28;20209;-85
2023/03/30 03:53:18;;;;;;;1.85;0.47;;;;;18.60;100217.00;;;;5000949;28;20193;-84
2023/03/30 03:55:46;;;;;;;4.28;0.90;;;;;18.60;100212.00;;;;5010177;28;20204;-85
2023/03/30 03:58:14;;;;;;;2.05;0.60;;;;;18.60;100217.00;;;;5008013;28;20224;-84
2023/03/30 04:00:42;;;;;;;2.17;1.00;;;;;18.60;100230.00;;;;5008720;28;20243;-85
2023/03/30 04:03:11;;;;;;;2.03;0.73;;;;;18.60;100221.00;;;;4997820;28;20198;-85
2023/03/30 04:05:40;;;;;;;3.72;0.70;;;;;18.60;100221.00;;;;4990706;28;20673;-87
2023/03/30 04:08:09;;;;;;;2.90;1.20;;;;;18.60;100219.00;;;;4995711;28;20637;-83
2023/03/30 04:10:37;;;;;;;2.38;0.73;;;;;18.60;100220.00;;;;5009833;28;20208;-85
2023/03/30 04:13:05;;;;;;;1.73;0.50;;;;;18.60;100218.00;;;;5010065;28;20193;-85
2023/03/30 04:15:33;;;;;;;3.53;0.95;;;;;18.60;100223.00;;;;5009758;28;21952;-85
2023/03/30 04:18:00;;;;;;;3.97;0.82;;;;;18.70;100224.00;;;;5009456;28;20236;-85
2023/03/30 04:20:29;;;;;;;2.08;0.73;;;;;18.70;100219.00;;;;4994300;28;20212;-86
2023/03/30 04:23:00;;;;;;;2.17;0.88;;;;;18.70;100229.00;;;;4990313;28;20202;-85
2023/03/30 04:25:28;;;;;;;0.98;0.57;;;;;18.70;100219.00;;;;5002297;28;20674;-86
2023/03/30 04:27:56;;;;;;;3.28;0.57;;;;;18.70;100225.00;;;;5007566;28;20200;-85
2023/03/30 04:30:24;;;;;;;2.97;0.90;;;;;18.70;100220.00;;;;5009349;28;20197;-86
2023/03/30 04:33:01;;;;;;;3.15;0.50;;;;;18.70;100226.00;;;;5009693;28;20204;-86
2023/03/30 04:35:30;;;;;;;1.50;0.73;;;;;18.70;100210.00;;;;5009623;28;20204;-85
2023/03/30 04:38:00;;;;;;;2.80;0.77;;;;;18.70;100213.00;;;;4989900;28;20233;-86
2023/03/30 04:40:28;;;;;;;1.38;0.50;;;;;18.70;100210.00;;;;5007818;28;20729;-85
2023/03/30 04:43:00;;;;;;;2.50;0.75;;;;;18.70;100206.00;;;;5009712;28;20203;-85
2023/03/30 04:45:28;;;;;;;6.43;1.10;;;;;18.70;100212.00;;;;5009680;28;20284;-84
2023/03/30 04:47:55;;;;;;;3.05;0.70;;;;;18.70;100213.00;;;;5009383;28;20200;-85
2023/03/30 04:50:23;;;;;;;3.03;1.23;;;;;18.70;100208.00;;;;5007784;28;20208;-86
2023/03/30 04:52:50;;;;;;;3.13;0.80;;;;;18.70;100216.00;;;;5006375;28;20200;-85
2023/03/30 04:55:19;;;;;;;3.33;0.90;;;;;18.60;100222.00;;;;5004780;28;20562;-84
2023/03/30 04:57:46;;;;;;;3.45;0.95;;;;;18.60;100206.00;;;;5006888;28;20232;-83
2023/03/30 05:00:14;;;;;;;3.80;1.60;;;;;18.60;100210.00;;;;5007222;28;20228;-83
2023/03/30 05:02:42;;;;;;;2.63;0.80;;;;;18.60;100214.00;;;;5007783;28;20227;-82
2023/03/30 05:05:10;;;;;;;5.65;1.02;;;;;18.60;100210.00;;;;5008614;28;20197;-83
2023/03/30 05:07:37;;;;;;;2.25;1.20;;;;;18.60;100216.00;;;;5007482;28;20655;-84
2023/03/30 05:10:06;;;;;;;3.13;0.90;;;;;18.60;100215.00;;;;5005991;28;20198;-84
2023/03/30 05:15:19;;;;;;;2.33;1.00;;;;;18.50;100219.00;;;;4995462;28;20721;-83
2023/03/30 05:17:46;;;;;;;1.48;1.05;;;;;18.50;100224.00;;;;5007302;28;20236;-84
2023/03/30 05:20:13;;;;;;;4.05;1.30;;;;;18.40;100207.00;;;;5007217;28;20581;-85
2023/03/30 05:22:41;;;;;;;1.70;1.20;;;;;18.40;100204.00;;;;5009206;28;20239;-82
2023/03/30 05:25:09;;;;;;;1.77;0.85;;;;;18.40;100211.00;;;;5005341;28;20205;-83
2023/03/30 05:27:37;;;;;;;2.25;1.00;;;;;18.40;100207.00;;;;4999356;28;20209;-83
2023/03/30 05:30:07;;;;;;;1.77;1.10;;;;;18.30;100210.00;;;;5000876;28;20197;-84
2023/03/30 05:32:34;;;;;;;5.55;1.20;;;;;18.30;100218.00;;;;5007771;28;20472;-84
2023/03/30 05:35:01;;;;;;;3.67;1.27;;;;;18.20;100229.00;;;;5008361;28;20212;-85
2023/03/30 05:37:29;;;;;;;2.70;1.95;;;;;18.20;100227.00;;;;5009090;28;20217;-85
2023/03/30 05:39:57;;;;;;;5.50;1.38;;;;;18.20;100229.00;;;;5010753;28;20192;-84
2023/03/30 05:42:24;;;;;;;2.10;1.08;;;;;18.20;100221.00;;;;5006130;28;20200;-84
2023/03/30 05:44:53;;;;;;;6.72;1.30;;;;;18.10;100218.00;;;;5007487;28;20208;-85
2023/03/30 05:47:20;;;;;;;2.55;1.25;;;;;18.10;100220.00;;;;5006751;28;20209;-84
2023/03/30 05:49:48;;;;;;;4.20;1.52;;;;;18.10;100225.00;;;;5007418;28;20201;-81
2023/03/30 05:52:15;;;;;;;4.95;1.20;;;;;18.10;100219.00;;;;5008095;28;20193;-82
2023/03/30 05:54:42;;;;;;;7.43;1.73;;;;;18.10;100229.00;;;;5007557;28;20640;-82
2023/03/30 05:57:10;;;;;;;4.40;1.92;;;;;18.00;100226.00;;;;5007016;28;20204;-81
2023/03/30 05:59:38;;;;;;;5.18;1.25;;;;;18.00;100231.00;;;;5006273;28;20259;-81
2023/03/30 06:02:07;;;;;;;3.30;1.08;;;;;18.00;100222.00;;;;5004456;28;20228;-82
2023/03/30 06:04:35;;;;;;;3.50;1.55;;;;;18.00;100221.00;;;;5005904;28;20243;-83
2023/03/30 06:07:02;;;;;;;3.70;1.60;;;;;18.00;100222.00;;;;5004647;28;20201;-85
2023/03/30 06:09:29;;;;;;;3.70;1.35;;;;;17.90;100230.00;;;;5004246;28;20204;-85
2023/03/30 06:11:57;;;;;;;6.57;1.40;;;;;17.90;100236.00;;;;5006062;28;20659;-85
2023/03/30 06:14:24;;;;;;;3.40;1.33;;;;;17.90;100233.00;;;;5006185;28;20194;-84
2023/03/30 06:16:52;;;;;;;3.15;1.10;;;;;17.90;100229.00;;;;4994923;28;20289;-84
2023/03/30 06:19:20;;;;;;;3.75;1.05;;;;;17.90;100234.00;;;;5002276;28;20572;-84
2023/03/30 06:21:48;;;;;;;5.38;1.38;;;;;17.90;100239.00;;;;5012780;28;20193;-83
2023/03/30 06:24:15;;;;;;;6.53;1.50;;;;;17.90;100238.00;;;;5011189;28;20200;-84
2023/03/30 06:26:42;;;;;;;3.92;1.70;;;;;17.90;100241.00;;;;5011339;28;20578;-85
2023/03/30 06:29:10;;;;;;;5.90;1.58;;;;;17.90;100236.00;;;;5010972;28;20234;-85
2023/03/30 06:31:37;;;;;;;5.97;1.52;;;;;17.90;100239.00;;;;5009872;28;20201;-85
2023/03/30 06:34:04;;;;;;;8.23;1.83;;;;;17.90;100249.00;;;;5009629;28;20189;-84
2023/03/30 06:36:33;;;;;;;4.45;1.80;;;;;17.90;100248.00;;;;4996592;28;20208;-85
2023/03/30 06:39:04;;;;;;;5.50;1.20;;;;;17.90;100255.00;;;;5008246;28;20233;-84
2023/03/30 06:41:31;;;;;;;4.07;1.58;;;;;18.00;100262.00;;;;5002482;28;20209;-85
2023/03/30 06:43:58;;;;;;;5.13;1.25;;;;;18.00;100263.00;;;;5002369;28;20208;-85
2023/03/30 06:46:26;;;;;;;7.50;1.88;;;;;18.00;100257.00;;;;5011814;28;20208;-85
2023/03/30 06:48:56;;;;;;;4.53;1.42;;;;;18.10;100261.00;;;;5007224;28;20583;-88
2023/03/30 06:51:23;;;;;;;8.50;1.27;;;;;18.20;100265.00;;;;5011848;28;20205;-88
2023/03/30 06:53:52;;;;;;;4.13;1.38;;;;;18.20;100281.00;;;;5011262;28;20197;-87
2023/03/30 06:56:19;;;;;;;11.13;2.33;;;;;18.30;100276.00;;;;5011939;28;20599;-87
2023/03/30 06:58:47;;;;;;;6.95;1.35;;;;;18.30;100274.00;;;;4999176;28;20225;-84
2023/03/30 07:01:15;;;;;;;5.55;1.38;;;;;18.30;100275.00;;;;5010355;28;20225;-85
2023/03/30 07:03:42;;;;;;;6.68;1.10;;;;;18.40;100266.00;;;;5004890;28;20239;-83
2023/03/30 07:06:11;;;;;;;10.65;2.42;;;;;18.40;100280.00;;;;5010296;28;20206;-84
2023/03/30 07:08:39;;;;;;;5.10;1.00;;;;;18.50;100280.00;;;;5008618;28;20208;-83
2023/03/30 07:11:07;;;;;;;9.82;1.67;;;;;18.50;100276.00;;;;5007228;28;20204;-84
2023/03/30 07:13:35;;;;;;;8.73;1.55;;;;;18.50;100285.00;;;;4999981;28;20205;-83
2023/03/30 07:16:02;;;;;;;7.22;1.67;;;;;18.50;100288.00;;;;5009414;28;20209;-86
2023/03/30 07:18:30;;;;;;;11.38;1.95;;;;;18.60;100293.00;;;;5005649;28;20225;-85
2023/03/30 07:20:59;;;;;;;8.10;2.53;;;;;18.50;100288.00;;;;5009484;28;20302;-86
2023/03/30 07:23:26;;;;;;;7.13;1.48;;;;;18.60;100290.00;;;;5007838;28;20205;-84
2023/03/30 07:25:53;;;;;;;6.50;1.48;;;;;18.60;100298.00;;;;5001027;28;20209;-86
2023/03/30 07:28:22;;;;;;;6.18;1.95;;;;;18.60;100301.00;;;;5009071;28;20208;-85
2023/03/30 07:30:50;;;;;;;6.13;1.70;;;;;18.60;100306.00;;;;5010091;28;20201;-86
2023/03/30 07:33:17;;;;;;;5.32;1.92;;;;;18.70;100312.00;;;;5004569;28;20205;-86
2023/03/30 07:35:46;;;;;;;5.22;1.65;;;;;18.70;100312.00;;;;5009846;28;20573;-86
2023/03/30 07:38:14;;;;;;;4.35;1.65;;;;;18.70;100317.00;;;;5010360;28;20718;-86
2023/03/30 07:40:42;;;;;;;7.97;1.63;;;;;18.70;100318.00;;;;5010667;28;20578;-85
2023/03/30 07:43:10;;;;;;;5.43;1.80;;;;;18.70;100324.00;;;;5007682;28;20208;-85
2023/03/30 07:45:39;;;;;;;6.50;1.60;;;;;18.70;100319.00;;;;5009437;28;20678;-86
2023/03/30 07:48:06;;;;;;;8.05;1.70;;;;;18.80;100317.00;;;;5005905;28;20201;-84
2023/03/30 07:50:33;;;;;;;7.80;2.17;;;;;18.80;100339.00;;;;5008535;28;20208;-86
2023/03/30 07:53:00;;;;;;;3.35;1.40;;;;;18.80;100316.00;;;;5005197;28;20655;-85
2023/03/30 07:55:28;;;;;;;9.35;2.53;;;;;18.90;100323.00;;;;5007657;28;20654;-84
2023/03/30 07:57:56;;;;;;;6.82;1.48;;;;;18.90;100320.00;;;;5006863;28;20200;-83
2023/03/30 08:00:24;;;;;;;7.07;1.35;;;;;19.00;100334.00;;;;5001376;28;20240;-85
2023/03/30 08:02:53;;;;;;;6.38;2.10;;;;;19.00;100332.00;;;;5006458;28;20217;-84
2023/03/30 08:05:20;;;;;;;7.00;2.03;;;;;19.00;100340.00;;;;5006845;28;20201;-83
2023/03/30 08:07:48;;;;;;;7.13;1.58;;;;;19.00;100343.00;;;;5007863;28;20197;-88
2023/03/30 08:10:16;;;;;;;8.77;1.83;;;;;19.10;100336.00;;;;5002825;28;20205;-86
2023/03/30 08:12:43;;;;;;;8.63;1.67;;;;;19.10;100325.00;;;;5004014;28;20201;-83
2023/03/30 08:15:11;;;;;;;7.18;2.00;;;;;19.10;100345.00;;;;5009238;28;20204;-87
2023/03/30 08:17:38;;;;;;;9.48;1.85;;;;;19.00;100345.00;;;;5004459;28;20205;-87
2023/03/30 08:20:10;;;;;;;7.32;1.80;;;;;19.00;100343.00;;;;5005646;28;20235;-84
2023/03/30 08:22:37;;;;;;;9.73;2.00;;;;;19.00;100337.00;;;;4989201;28;20209;-85
2023/03/30 08:25:05;;;;;;;9.65;2.28;;;;;19.10;100352.00;;;;5005752;28;20208;-85
2023/03/30 08:27:33;;;;;;;6.75;1.65;;;;;19.10;100343.00;;;;5007300;28;20877;-84
2023/03/30 08:30:00;;;;;;;6.85;1.60;;;;;19.10;100347.00;;;;5003197;28;20205;-86
2023/03/30 08:32:28;;;;;;;8.27;2.28;;;;;19.10;100360.00;;;;5003371;28;20317;-84
2023/03/30 08:34:55;;;;;;;10.40;2.85;;;;;19.10;100365.00;;;;5004841;28;20205;-84
2023/03/30 08:37:24;;;;;;;8.48;2.25;;;;;19.10;100365.00;;;;5006096;28;20216;-84
2023/03/30 08:39:51;;;;;;;8.75;1.70;;;;;19.10;100382.00;;;;5003809;28;20232;-83
2023/03/30 08:42:43;;;;;;;7.55;2.47;;;;;19.00;100370.00;;;;5004298;28;20695;-84
2023/03/30 08:45:12;;;;;;;11.02;1.90;;;;;19.10;100377.00;;;;4989138;28;20198;-85
2023/03/30 08:47:42;;;;;;;9.20;1.80;;;;;19.00;100378.00;;;;5005291;28;20204;-86
2023/03/30 08:50:14;;;;;;;7.30;2.25;;;;;19.00;100386.00;;;;5010666;28;20208;-84
2023/03/30 08:52:43;;;;;;;6.55;1.60;;;;;19.00;100374.00;;;;5007543;28;20201;-86
2023/03/30 08:55:21;;;;;;;6.07;1.45;;;;;18.90;100379.00;;;;5005367;28;20203;-86
2023/03/30 08:57:54;;;;;;;6.38;1.92;;;;;19.00;100388.00;;;;5008079;28;20192;-85
2023/03/30 09:00:31;;;;;;;9.68;2.05;;;;;19.00;100384.00;;;;5004021;28;20243;-84
2023/03/30 09:03:06;;;;;;;5.78;1.50;;;;;19.00;100387.00;;;;5001112;28;20222;-84
2023/03/30 09:05:42;;;;;;;5.20;2.05;;;;;19.00;100386.00;;;;5006950;28;20200;-84
2023/03/30 09:08:16;;;;;;;7.18;2.00;;;;;19.00;100386.00;;;;5007231;28;20206;-86
2023/03/30 09:10:47;;;;;;;8.07;2.05;;;;;19.10;100379.00;;;;5004681;28;20193;-86
2023/03/30 09:13:18;;;;;;;9.15;2.03;;;;;19.10;100393.00;;;;5003998;28;20193;-84
2023/03/30 09:15:49;;;;;;;10.10;2.45;;;;;19.10;100385.00;;;;4999296;28;20205;-86
2023/03/30 09:18:22;;;;;;;5.88;1.90;;;;;19.20;100390.00;;;;5007379;28;20208;-85
2023/03/30 09:20:53;;;;;;;6.63;1.58;;;;;19.20;100389.00;;;;5003721;28;20839;-85
2023/03/30 09:23:23;;;;;;;7.05;1.73;;;;;19.30;100389.00;;;;4996888;28;20275;-85
2023/03/30 09:25:57;;;;;;;7.80;2.55;;;;;19.30;100389.00;;;;5005169;28;20284;-86
2023/03/30 09:28:32;;;;;;;14.07;3.05;;;;;19.40;100388.00;;;;5008059;28;20219;-85
2023/03/30 09:31:07;;;;;;;8.80;2.13;;;;;19.50;100397.00;;;;5001387;28;20203;-83
2023/03/30 09:33:42;;;;;;;6.88;2.55;;;;;19.50;100396.00;;;;5002576;28;20228;-85
2023/03/30 09:36:15;;;;;;;7.68;2.22;;;;;19.60;100395.00;;;;5003885;28;20739;-85
2023/03/30 09:38:45;;;;;;;18.05;2.92;;;;;19.70;100402.00;;;;5005532;28;20312;-84
2023/03/30 09:41:41;;;;;;;11.00;3.35;;;;;19.70;100416.00;;;;5005278;28;20214;-84
2023/03/30 09:44:18;;;;;;;10.02;2.75;;;;;19.90;100407.00;;;;4989285;28;20201;-86
2023/03/30 09:46:48;;;;;;;10.15;1.73;;;;;20.00;100422.00;;;;5005847;28;20207;-86
2023/03/30 09:49:17;;;;;;;11.00;2.00;;;;;20.10;100425.00;;;;5004671;28;20756;-85
2023/03/30 09:51:55;;;;;;;7.78;2.25;;;;;20.10;100425.00;;;;5009823;28;20207;-85
2023/03/30 09:54:25;;;;;;;11.00;2.40;;;;;20.20;100428.00;;;;5011505;28;20204;-85
2023/03/30 09:56:55;;;;;;;11.75;2.63;;;;;20.20;100431.00;;;;5009805;28;20239;-84
2023/03/30 09:59:30;;;;;;;7.68;2.47;;;;;20.10;100425.00;;;;5004376;28;20251;-85
2023/03/30 10:02:16;;;;;;;11.90;2.50;;;;;20.10;100442.00;;;;5008067;28;20219;-85
2023/03/30 10:04:59;;;;;;;9.00;2.17;;;;;20.20;100458.00;;;;5008535;28;20677;-84
2023/03/30 10:07:29;;;;;;;9.45;2.42;;;;;20.20;100436.00;;;;5009247;28;20193;-87
2023/03/30 10:09:59;;;;;;;10.65;2.53;;;;;20.20;100447.00;;;;5012292;28;20628;-86
2023/03/30 10:12:29;;;;;;;13.13;2.55;;;;;20.20;100450.00;;;;5006833;28;20208;-85
2023/03/30 10:15:00;;;;;;;11.55;2.28;;;;;20.30;100437.00;;;;5006890;28;20282;-85
2023/03/30 10:17:28;;;;;;;9.80;2.33;;;;;20.30;100442.00;;;;5006893;28;20201;-85
2023/03/30 10:20:20;;;;;;;12.02;2.45;;;;;20.20;100444.00;;;;5012224;28;20221;-86
2023/03/30 10:22:53;;;;;;;8.88;1.95;;;;;20.30;100457.00;;;;5010727;28;20227;-85
2023/03/30 10:25:26;;;;;;;17.13;3.17;;;;;20.40;100452.00;;;;5009576;28;20201;-86
2023/03/30 10:27:57;;;;;;;14.00;3.20;;;;;20.40;100468.00;;;;5005691;28;20727;-88
2023/03/30 10:30:28;;;;;;;15.63;3.00;;;;;20.40;100444.00;;;;5011173;28;20208;-87
2023/03/30 10:32:59;;;;;;;11.77;2.53;;;;;20.40;100455.00;;;;5009342;28;20747;-83
2023/03/30 10:35:32;;;;;;;11.73;2.47;;;;;20.40;100449.00;;;;5005030;28;20271;-85
2023/03/30 10:38:03;;;;;;;11.25;2.17;;;;;20.40;100447.00;;;;5008643;28;20213;-84
2023/03/30 10:40:36;;;;;;;6.65;1.90;;;;;20.50;100475.00;;;;5005772;28;20890;-86
2023/03/30 10:43:06;;;;;;;13.32;2.42;;;;;20.60;100440.00;;;;5005478;28;21642;-86
2023/03/30 10:45:37;;;;;;;9.25;2.90;;;;;20.70;100453.00;;;;5007343;28;20193;-86
2023/03/30 10:48:25;;;;;;;12.43;2.17;;;;;20.70;100452.00;;;;5005200;28;20208;-85
2023/03/30 10:51:01;;;;;;;12.55;2.33;;;;;20.80;100447.00;;;;5007544;28;20296;-87
2023/03/30 10:53:43;;;;;;;9.65;2.70;;;;;20.90;100451.00;;;;5004325;28;20193;-84
2023/03/30 10:56:23;;;;;;;10.15;2.25;;;;;21.00;100449.00;;;;5008593;28;20204;-85
2023/03/30 10:59:05;;;;;;;10.88;2.50;;;;;21.00;100451.00;;;;5007932;28;20200;-84
2023/03/30 11:01:42;;;;;;;10.13;2.03;;;;;21.10;100453.00;;;;5005085;28;20212;-86
2023/03/30 11:04:16;;;;;;;14.38;2.65;;;;;21.20;100458.00;;;;5006075;28;20208;-85
2023/03/30 11:06:45;;;;;;;11.85;2.45;;;;;21.40;100443.00;;;;5005082;28;20635;-84
2023/03/30 11:09:18;;;;;;;5.65;1.48;;;;;21.40;100452.00;;;;5004907;28;20197;-85
2023/03/30 11:11:52;;;;;;;9.85;1.58;;;;;21.40;100436.00;;;;5007181;28;20197;-86
2023/03/30 11:14:25;;;;;;;11.10;1.67;;;;;21.50;100440.00;;;;5008930;28;20196;-86
2023/03/30 11:16:58;;;;;;;11.20;2.05;;;;;21.60;100448.00;;;;5006338;28;20195;-85
2023/03/30 11:19:34;;;;;;;13.32;2.35;;;;;21.70;100456.00;;;;5007582;28;20244;-86
2023/03/30 11:22:11;;;;;;;12.50;1.77;;;;;21.70;100468.00;;;;5005910;28;20351;-87
2023/03/30 11:24:42;;;;;;;8.65;2.55;;;;;21.80;100464.00;;;;5004709;28;20201;-87
2023/03/30 11:27:18;;;;;;;5.03;1.90;;;;;21.80;100472.00;;;;5006203;28;20243;-85
2023/03/30 11:29:51;;;;;;;14.60;2.92;;;;;21.90;100462.00;;;;5004805;28;20303;-86
2023/03/30 11:32:30;;;;;;;11.40;2.30;;;;;21.90;100467.00;;;;5007502;28;20193;-87
2023/03/30 11:35:05;;;;;;;11.27;2.47;;;;;21.90;100472.00;;;;5003893;28;20201;-87
2023/03/30 11:37:38;;;;;;;11.55;2.42;;;;;22.00;100463.00;;;;5001928;28;20208;-86
2023/03/30 11:40:16;;;;;;;11.00;2.22;;;;;22.00;100464.00;;;;5008961;28;20292;-84
2023/03/30 11:42:47;;;;;;;8.70;2.15;;;;;22.00;100476.00;;;;5009379;28;20200;-86
2023/03/30 11:45:28;;;;;;;6.68;1.90;;;;;22.00;100472.00;;;;5006879;28;20722;-85
2023/03/30 11:48:12;;;;;;;12.45;1.90;;;;;21.90;100486.00;;;;5006471;28;20201;-85
2023/03/30 11:51:04;;;;;;;6.80;1.88;;;;;21.90;100476.00;;;;5009491;28;20200;-86
2023/03/30 11:53:37;;;;;;;5.22;1.38;;;;;22.00;100488.00;;;;5008781;28;20193;-84
2023/03/30 11:56:10;;;;;;;10.57;1.63;;;;;22.00;100479.00;;;;5009244;28;20592;-85
2023/03/30 11:58:47;;;;;;;9.00;2.08;;;;;22.00;100483.00;;;;5000613;28;20209;-84
2023/03/30 12:01:47;;;;;;;6.38;1.65;;;;;21.80;100478.00;;;;5007414;28;20232;-86
2023/03/30 12:04:19;;;;;;;7.38;1.90;;;;;21.90;100488.00;;;;5002098;28;20304;-85
2023/03/30 12:06:53;;;;;;;6.50;1.30;;;;;21.90;100474.00;;;;5007119;28;20193;-85
2023/03/30 12:09:25;;;;;;;8.88;1.83;;;;;21.80;100480.00;;;;5005806;28;20666;-85
2023/03/30 12:11:57;;;;;;;8.80;1.58;;;;;21.80;100492.00;;;;5006111;28;20201;-86
2023/03/30 12:14:50;;;;;;;9.05;2.60;;;;;21.70;100465.00;;;;5007765;28;20656;-84
2023/03/30 12:17:38;;;;;;;9.27;1.58;;;;;21.70;100487.00;;;;5002435;28;20201;-86
2023/03/30 12:20:15;;;;;;;7.72;2.03;;;;;21.80;100477.00;;;;4991128;28;20236;-85
2023/03/30 12:22:49;;;;;;;10.50;2.05;;;;;21.80;100483.00;;;;5007200;28;20220;-82
2023/03/30 12:25:26;;;;;;;12.15;2.70;;;;;21.90;100500.00;;;;5005869;28;20296;-86
2023/03/30 12:27:59;;;;;;;11.95;2.90;;;;;22.00;100503.00;;;;5002353;28;20283;-85
2023/03/30 12:30:30;;;;;;;14.60;2.63;;;;;22.00;100489.00;;;;5004509;28;20208;-85